Time;durP1;ratioP1;P1;durP2;ratioP2;P2;SDS_P1;SDS_P2;PMS_P1;PMS_P2;Temp;Humidity;BMP_temperature;BMP_pressure;BME280_temperature;BME280_humidity;BME280_pressure;Samples;Min_cycle;Max_cycle;Signal;HPM_P1;HPM_P2
2022/10/15 00:00:25;;;;;;;9.93;6.47;;;13.30;99.90;;;;;;4989628;28;20037;-83
2022/10/15 00:02:51;;;;;;;9.88;7.97;;;13.30;99.90;;;;;;4991684;28;20030;-82
2022/10/15 00:05:17;;;;;;;8.57;7.38;;;13.30;99.90;;;;;;5023352;28;20396;-81
2022/10/15 00:07:42;;;;;;;8.40;6.88;;;13.20;99.90;;;;;;5025636;28;20041;-82
2022/10/15 00:10:08;;;;;;;12.00;6.97;;;13.30;99.90;;;;;;5006700;28;20032;-83
2022/10/15 00:12:33;;;;;;;6.70;6.00;;;13.20;99.90;;;;;;5007947;28;20033;-82
2022/10/15 00:14:59;;;;;;;9.82;7.63;;;13.30;99.90;;;;;;5009760;28;20500;-80
2022/10/15 00:17:24;;;;;;;17.98;8.93;;;13.20;99.90;;;;;;5024965;28;20029;-81
2022/10/15 00:19:50;;;;;;;11.60;8.63;;;13.20;99.90;;;;;;4992914;28;20045;-82
2022/10/15 00:22:15;;;;;;;7.43;5.20;;;13.20;99.90;;;;;;5008698;28;20404;-84
2022/10/15 00:24:41;;;;;;;12.38;7.55;;;13.20;99.90;;;;;;4992665;28;20034;-83
2022/10/15 00:27:06;;;;;;;15.95;8.30;;;13.20;99.90;;;;;;5008016;28;20057;-82
2022/10/15 00:29:32;;;;;;;13.32;9.98;;;13.20;99.90;;;;;;5041198;28;20017;-83
2022/10/15 00:31:58;;;;;;;10.32;6.85;;;13.10;99.90;;;;;;5009219;28;20434;-81
2022/10/15 00:34:23;;;;;;;12.55;9.60;;;13.10;99.90;;;;;;5007856;28;20033;-82
2022/10/15 00:36:49;;;;;;;13.48;9.38;;;13.10;99.90;;;;;;4992056;28;20025;-82
2022/10/15 00:39:14;;;;;;;9.40;6.93;;;13.10;99.90;;;;;;5008234;28;20056;-84
2022/10/15 00:41:41;;;;;;;11.52;8.45;;;13.10;99.90;;;;;;5024453;28;20022;-81
2022/10/15 00:44:28;;;;;;;12.10;9.35;;;13.00;99.90;;;;;;4992868;28;20040;-82
2022/10/15 00:47:04;;;;;;;8.43;6.93;;;13.00;99.90;;;;;;5020047;28;20060;-82
2022/10/15 00:49:30;;;;;;;;;;;13.00;99.90;;;;;;5008270;28;20036;-82
2022/10/15 00:52:01;;;;;;;6.97;5.85;;;13.10;99.90;;;;;;5008083;28;20002;-82
2022/10/15 00:54:28;;;;;;;8.70;6.43;;;13.10;99.90;;;;;;5023792;28;20026;-83
2022/10/15 00:56:53;;;;;;;11.18;6.97;;;13.10;99.90;;;;;;5009012;28;20026;-82
2022/10/15 00:59:19;;;;;;;7.63;6.47;;;13.10;99.90;;;;;;4992195;28;20548;-83
2022/10/15 01:01:44;;;;;;;11.05;6.88;;;13.10;99.90;;;;;;4993243;28;20033;-83
2022/10/15 01:04:10;;;;;;;11.63;8.57;;;13.10;99.90;;;;;;5009563;28;20458;-82
2022/10/15 01:06:36;;;;;;;8.63;7.68;;;13.10;99.90;;;;;;4994806;28;20499;-83
2022/10/15 01:09:02;;;;;;;9.00;7.38;;;13.10;99.90;;;;;;5008902;28;20034;-82
2022/10/15 01:11:58;;;;;;;8.80;7.57;;;13.00;99.90;;;;;;5007044;28;20508;-83
2022/10/15 01:14:46;;;;;;;7.73;5.80;;;13.00;99.90;;;;;;5025455;28;20037;-83
2022/10/15 01:17:41;;;;;;;8.80;7.82;;;13.00;99.90;;;;;;5025228;28;20617;-83
2022/10/15 01:20:31;;;;;;;7.28;5.63;;;13.00;99.90;;;;;;5028736;28;20454;-83
2022/10/15 01:23:05;;;;;;;13.05;7.53;;;13.10;99.90;;;;;;5021099;28;20657;-82
2022/10/15 01:26:07;;;;;;;9.45;7.25;;;13.10;99.90;;;;;;5025394;28;20116;-81
2022/10/15 01:28:57;;;;;;;7.15;5.78;;;13.00;99.90;;;;;;5038408;28;20360;-81
2022/10/15 01:31:36;;;;;;;8.13;6.07;;;13.00;99.90;;;;;;5017848;28;20095;-83
2022/10/15 01:34:12;;;;;;;10.02;6.68;;;13.00;99.90;;;;;;5004362;28;20040;-82
2022/10/15 01:37:06;;;;;;;11.73;8.75;;;13.00;99.90;;;;;;5030276;28;20029;-82
2022/10/15 01:39:33;;;;;;;14.57;9.98;;;12.90;99.90;;;;;;5025691;28;20034;-83
2022/10/15 01:42:29;;;;;;;12.48;10.02;;;12.80;99.90;;;;;;5011723;28;20057;-83
2022/10/15 01:45:01;;;;;;;13.80;11.00;;;12.70;99.90;;;;;;5008122;28;20091;-83
2022/10/15 01:47:48;;;;;;;15.00;11.57;;;12.60;99.90;;;;;;5010735;28;20033;-83
2022/10/15 01:50:14;;;;;;;16.00;11.43;;;12.50;99.90;;;;;;5004772;28;20033;-83
2022/10/15 01:52:39;;;;;;;16.55;12.43;;;12.50;99.90;;;;;;5012240;28;20496;-84
2022/10/15 01:55:07;;;;;;;18.88;12.25;;;12.50;99.90;;;;;;5019374;28;20048;-84
2022/10/15 01:57:32;;;;;;;15.10;12.00;;;12.40;99.90;;;;;;5009842;28;20489;-84
2022/10/15 01:59:58;;;;;;;19.33;12.82;;;12.40;99.90;;;;;;5028985;28;20034;-83
2022/10/15 02:02:24;;;;;;;18.65;13.02;;;12.40;99.90;;;;;;5010062;28;20108;-84
2022/10/15 02:04:49;;;;;;;20.77;12.35;;;12.40;99.90;;;;;;5011439;28;20095;-79
2022/10/15 02:07:28;;;;;;;10.07;7.68;;;12.30;99.90;;;;;;4983512;28;20400;-78
2022/10/15 02:10:13;;;;;;;23.27;13.18;;;12.40;99.90;;;;;;5011666;28;20038;-78
2022/10/15 02:13:10;;;;;;;18.02;12.88;;;12.40;99.90;;;;;;5010713;28;20030;-78
2022/10/15 02:15:53;;;;;;;21.33;13.60;;;12.40;99.90;;;;;;5026451;28;20083;-78
2022/10/15 02:18:37;;;;;;;14.15;9.93;;;12.50;99.90;;;;;;5027810;28;20022;-78
2022/10/15 02:21:15;;;;;;;10.82;7.82;;;12.50;99.90;;;;;;5024505;28;20453;-79
2022/10/15 02:23:55;;;;;;;22.08;13.55;;;12.40;99.90;;;;;;4995045;28;20049;-79
2022/10/15 02:26:20;;;;;;;16.90;11.50;;;12.40;99.90;;;;;;5009647;28;20033;-79
2022/10/15 02:28:49;;;;;;;9.40;7.65;;;12.40;99.90;;;;;;5010556;28;20025;-79
2022/10/15 02:31:15;;;;;;;20.55;11.95;;;12.50;99.90;;;;;;5009552;28;20140;-80
2022/10/15 02:33:40;;;;;;;11.07;8.45;;;12.50;99.90;;;;;;5010560;28;20041;-79
2022/10/15 02:36:06;;;;;;;11.95;8.98;;;12.50;99.90;;;;;;5000436;28;20175;-79
2022/10/15 02:38:32;;;;;;;15.07;9.95;;;12.40;99.90;;;;;;4994288;28;20072;-78
2022/10/15 02:40:57;;;;;;;10.80;7.70;;;12.50;99.90;;;;;;5008913;28;20045;-78
2022/10/15 02:43:23;;;;;;;24.50;14.60;;;12.40;99.90;;;;;;4994047;28;20021;-78
2022/10/15 02:45:48;;;;;;;20.02;15.38;;;12.50;99.90;;;;;;5026183;28;20033;-79
2022/10/15 02:48:14;;;;;;;13.75;9.27;;;12.40;99.90;;;;;;5010220;28;20030;-79
2022/10/15 02:50:40;;;;;;;13.57;10.07;;;12.30;99.90;;;;;;5009684;28;20037;-78
2022/10/15 02:53:05;;;;;;;11.38;9.07;;;12.40;99.90;;;;;;5007635;28;20038;-80
2022/10/15 02:55:31;;;;;;;21.02;14.95;;;12.40;99.90;;;;;;4994213;28;20592;-79
2022/10/15 02:57:56;;;;;;;14.35;11.05;;;12.40;99.90;;;;;;5010269;28;20040;-79
2022/10/15 03:00:22;;;;;;;12.25;9.68;;;12.40;99.90;;;;;;5009322;28;20034;-79
2022/10/15 03:02:47;;;;;;;13.00;10.82;;;12.40;99.90;;;;;;4993858;28;20115;-79
2022/10/15 03:05:13;;;;;;;20.85;14.05;;;12.40;99.90;;;;;;5025725;28;20022;-79
2022/10/15 03:07:39;;;;;;;16.73;11.02;;;12.40;99.90;;;;;;5009064;28;20039;-78
2022/10/15 03:10:04;;;;;;;18.27;13.00;;;12.40;99.90;;;;;;5009913;28;20029;-79
2022/10/15 03:12:30;;;;;;;15.25;8.65;;;12.30;99.90;;;;;;4993709;28;20072;-79
2022/10/15 03:14:56;;;;;;;22.75;14.02;;;12.40;99.90;;;;;;5024470;28;20393;-78
2022/10/15 03:17:21;;;;;;;16.83;13.20;;;12.40;99.90;;;;;;5010313;28;20049;-79
2022/10/15 03:19:47;;;;;;;14.75;10.93;;;12.40;99.90;;;;;;5008984;28;20024;-78
2022/10/15 03:22:12;;;;;;;15.55;10.57;;;12.30;99.90;;;;;;4993421;28;20029;-77
2022/10/15 03:24:38;;;;;;;21.98;15.70;;;12.40;99.90;;;;;;5010161;28;20374;-78
2022/10/15 03:27:03;;;;;;;19.92;15.95;;;12.30;99.90;;;;;;5009694;28;20557;-78
2022/10/15 03:29:29;;;;;;;23.33;17.17;;;12.20;99.90;;;;;;5025338;28;20049;-79
2022/10/15 03:31:54;;;;;;;13.82;10.13;;;12.30;99.90;;;;;;5015549;28;20025;-79
2022/10/15 03:34:20;;;;;;;14.13;11.02;;;12.30;99.90;;;;;;5025322;28;20033;-78
2022/10/15 03:36:45;;;;;;;21.55;14.02;;;12.40;99.90;;;;;;5009502;28;20032;-77
2022/10/15 03:39:11;;;;;;;24.15;17.00;;;12.40;99.90;;;;;;5025529;28;20025;-77
2022/10/15 03:41:37;;;;;;;24.90;16.58;;;12.20;99.90;;;;;;5008394;28;20083;-77
2022/10/15 03:44:03;;;;;;;28.27;17.80;;;12.20;99.90;;;;;;5009471;28;20148;-77
2022/10/15 03:46:29;;;;;;;24.92;15.13;;;12.10;99.90;;;;;;5009712;28;20167;-78
2022/10/15 03:48:55;;;;;;;22.80;17.13;;;12.00;99.90;;;;;;5008154;28;20584;-77
2022/10/15 03:51:20;;;;;;;26.05;17.85;;;12.00;99.90;;;;;;5025041;28;20163;-78
2022/10/15 03:53:46;;;;;;;16.67;11.52;;;12.00;99.90;;;;;;5009248;28;20378;-78
2022/10/15 03:56:11;;;;;;;21.15;14.68;;;12.00;99.90;;;;;;5007901;28;20482;-79
2022/10/15 03:58:37;;;;;;;16.48;11.77;;;12.00;99.90;;;;;;5007176;28;20472;-78
2022/10/15 04:01:08;;;;;;;14.95;11.80;;;11.90;99.90;;;;;;5026355;28;20461;-77
2022/10/15 04:03:34;;;;;;;15.82;11.77;;;12.00;99.90;;;;;;5021619;28;20025;-78
2022/10/15 04:05:59;;;;;;;18.40;13.95;;;12.00;99.90;;;;;;5007561;28;20492;-78
2022/10/15 04:08:25;;;;;;;16.63;11.23;;;11.90;99.90;;;;;;5007759;28;20037;-77
2022/10/15 04:10:50;;;;;;;20.42;14.02;;;11.90;99.90;;;;;;5025047;28;20033;-78
2022/10/15 04:13:16;;;;;;;25.95;17.23;;;11.90;99.90;;;;;;5007493;28;20116;-78
2022/10/15 04:15:42;;;;;;;21.30;15.20;;;11.90;99.90;;;;;;5007919;28;20039;-78
2022/10/15 04:18:07;;;;;;;18.98;13.15;;;11.90;99.90;;;;;;5014409;28;20040;-78
2022/10/15 04:20:33;;;;;;;26.33;18.15;;;11.90;99.90;;;;;;5010574;28;20029;-79
2022/10/15 04:22:58;;;;;;;20.20;14.30;;;12.00;99.90;;;;;;5011974;28;20038;-78
2022/10/15 04:25:24;;;;;;;28.58;18.15;;;12.00;99.90;;;;;;5025066;28;20030;-78
2022/10/15 04:27:52;;;;;;;22.77;14.52;;;12.00;99.90;;;;;;5024433;28;20124;-78
2022/10/15 04:30:17;;;;;;;18.23;13.65;;;11.90;99.90;;;;;;4998304;28;20029;-78
2022/10/15 04:32:43;;;;;;;28.85;20.88;;;12.00;99.90;;;;;;5010023;28;20025;-78
2022/10/15 04:35:08;;;;;;;27.48;19.45;;;12.10;99.90;;;;;;5025163;28;20041;-78
2022/10/15 04:37:34;;;;;;;30.38;21.15;;;12.00;99.90;;;;;;5008477;28;20033;-79
2022/10/15 04:40:00;;;;;;;23.23;14.00;;;12.00;99.90;;;;;;5007088;28;20033;-77
2022/10/15 04:42:28;;;;;;;30.00;19.10;;;12.10;99.90;;;;;;5025692;28;20037;-78
2022/10/15 04:44:54;;;;;;;25.40;17.60;;;12.10;99.90;;;;;;5027591;28;20389;-78
2022/10/15 04:47:19;;;;;;;21.27;15.25;;;12.20;99.90;;;;;;5024266;28;20034;-78
2022/10/15 04:49:45;;;;;;;27.40;17.85;;;12.20;99.90;;;;;;5007980;28;20028;-79
2022/10/15 04:52:11;;;;;;;25.65;18.38;;;12.20;99.90;;;;;;5024143;28;20021;-77
2022/10/15 04:54:36;;;;;;;27.65;14.48;;;12.20;99.90;;;;;;5012046;28;20105;-78
2022/10/15 04:57:03;;;;;;;34.35;20.90;;;12.30;99.90;;;;;;5025434;28;20018;-78
2022/10/15 04:59:28;;;;;;;27.27;18.80;;;12.30;99.90;;;;;;5007654;28;20091;-78
2022/10/15 05:01:54;;;;;;;26.20;18.90;;;12.30;99.90;;;;;;5009409;28;20038;-77
2022/10/15 05:04:19;;;;;;;19.92;13.43;;;12.30;99.90;;;;;;5025915;28;20551;-78
2022/10/15 05:06:45;;;;;;;26.67;18.05;;;12.30;99.90;;;;;;5025548;28;20428;-77
2022/10/15 05:09:10;;;;;;;18.65;14.02;;;12.30;99.90;;;;;;5010530;28;20402;-78
2022/10/15 05:11:39;;;;;;;33.00;21.20;;;12.40;99.90;;;;;;5015058;28;20500;-78
2022/10/15 05:14:05;;;;;;;26.75;18.25;;;12.40;99.90;;;;;;5014562;28;20034;-78
2022/10/15 05:16:31;;;;;;;19.42;14.23;;;12.50;99.90;;;;;;5034215;28;20034;-77
2022/10/15 05:19:01;;;;;;;21.20;14.95;;;12.50;99.90;;;;;;5012016;28;20033;-78
2022/10/15 05:21:26;;;;;;;36.47;22.50;;;12.50;99.90;;;;;;4992929;28;20036;-78
2022/10/15 05:23:52;;;;;;;29.42;18.90;;;12.50;99.90;;;;;;5014345;28;20025;-78
2022/10/15 05:26:19;;;;;;;31.08;22.90;;;12.50;99.90;;;;;;4995869;28;20052;-78
2022/10/15 05:28:45;;;;;;;28.95;19.75;;;12.50;99.90;;;;;;5012137;28;20103;-78
2022/10/15 05:31:12;;;;;;;25.27;18.30;;;12.40;99.90;;;;;;5013885;28;20478;-78
2022/10/15 05:33:38;;;;;;;33.72;23.52;;;12.50;99.90;;;;;;4991251;28;20030;-78
2022/10/15 05:36:25;;;;;;;37.95;24.27;;;12.40;99.90;;;;;;5030361;28;20606;-78
2022/10/15 05:38:53;;;;;;;28.17;19.02;;;12.40;99.90;;;;;;5011118;28;20409;-79
2022/10/15 05:41:19;;;;;;;37.65;25.35;;;12.40;99.90;;;;;;4995697;28;20103;-79
2022/10/15 05:43:52;;;;;;;36.03;23.70;;;12.30;99.90;;;;;;5013934;28;20033;-77
2022/10/15 05:46:18;;;;;;;24.67;16.85;;;12.30;99.90;;;;;;4991285;28;20053;-78
2022/10/15 05:48:53;;;;;;;33.05;21.35;;;12.30;99.90;;;;;;5016125;28;20040;-78
2022/10/15 05:51:19;;;;;;;;;;;12.30;99.90;;;;;;4318846;28;10000219;-77
2022/10/15 05:53:47;;;;;;;27.40;19.48;;;12.30;99.90;;;;;;5012137;28;19921;-77
2022/10/15 05:56:13;;;;;;;30.17;18.88;;;12.20;99.90;;;;;;5021484;28;20041;-79
2022/10/15 05:58:39;;;;;;;27.00;19.17;;;12.30;99.90;;;;;;5009565;28;20092;-78
2022/10/15 06:01:06;;;;;;;27.83;20.50;;;12.30;99.90;;;;;;5010441;28;20496;-78
2022/10/15 06:03:32;;;;;;;24.92;16.85;;;12.40;99.90;;;;;;5009748;28;20049;-78
2022/10/15 06:05:57;;;;;;;21.65;15.57;;;12.40;99.90;;;;;;5009694;28;20482;-79
2022/10/15 06:08:23;;;;;;;27.60;18.50;;;12.50;99.90;;;;;;5008887;28;20048;-79
2022/10/15 06:10:49;;;;;;;21.58;14.43;;;12.40;99.90;;;;;;5009943;28;20025;-78
2022/10/15 06:13:14;;;;;;;29.13;20.63;;;12.40;99.90;;;;;;5010813;28;20456;-86
2022/10/15 06:15:44;;;;;;;28.27;18.65;;;12.50;99.90;;;;;;5025670;28;20038;-85
2022/10/15 06:18:10;;;;;;;26.90;18.27;;;12.50;99.90;;;;;;5010631;28;20071;-86
2022/10/15 06:20:36;;;;;;;30.45;17.13;;;12.50;99.90;;;;;;5011140;28;20034;-85
2022/10/15 06:23:02;;;;;;;22.70;15.25;;;12.50;99.90;;;;;;5030073;28;20029;-84
2022/10/15 06:25:28;;;;;;;30.15;17.33;;;12.60;99.90;;;;;;5011796;28;20532;-84
2022/10/15 06:27:53;;;;;;;23.88;17.38;;;12.50;99.90;;;;;;5028546;28;20091;-86
2022/10/15 06:30:19;;;;;;;23.88;17.10;;;12.50;99.90;;;;;;5011134;28;20034;-85
2022/10/15 06:32:51;;;;;;;25.65;15.43;;;12.50;99.90;;;;;;5011418;28;20029;-85
2022/10/15 06:35:16;;;;;;;24.08;16.20;;;12.50;99.90;;;;;;4996132;28;20092;-85
2022/10/15 06:37:42;;;;;;;24.13;15.75;;;12.60;99.90;;;;;;5012711;28;20029;-85
2022/10/15 06:40:08;;;;;;;21.27;14.93;;;12.50;99.90;;;;;;5015389;28;20072;-86
2022/10/15 06:42:34;;;;;;;22.60;16.20;;;12.50;99.90;;;;;;5012389;28;20045;-85
2022/10/15 06:44:59;;;;;;;29.45;18.70;;;12.50;99.90;;;;;;5012619;28;20025;-87
2022/10/15 06:47:25;;;;;;;22.75;15.00;;;12.50;99.90;;;;;;5012206;28;20515;-86
2022/10/15 06:49:50;;;;;;;20.85;14.27;;;12.60;99.90;;;;;;5011433;28;20553;-82
2022/10/15 06:52:16;;;;;;;23.70;15.43;;;12.50;99.90;;;;;;5012598;28;20569;-87
2022/10/15 06:54:42;;;;;;;25.88;18.92;;;12.60;99.90;;;;;;5013582;28;20407;-86
2022/10/15 06:57:07;;;;;;;24.30;16.15;;;12.60;99.90;;;;;;5013113;28;20036;-86
2022/10/15 06:59:33;;;;;;;23.70;16.05;;;12.70;99.90;;;;;;5012247;28;20033;-87
2022/10/15 07:01:58;;;;;;;22.25;15.32;;;12.70;99.90;;;;;;5012322;28;20064;-87
2022/10/15 07:04:24;;;;;;;26.70;18.58;;;12.70;99.90;;;;;;5011620;28;20547;-86
2022/10/15 07:06:49;;;;;;;33.47;18.13;;;12.70;99.90;;;;;;5011400;28;20041;-84
2022/10/15 07:09:15;;;;;;;27.63;17.85;;;12.70;99.90;;;;;;5010391;28;20091;-87
2022/10/15 07:11:41;;;;;;;26.17;18.02;;;12.80;99.90;;;;;;5027421;28;20029;-87
2022/10/15 07:14:06;;;;;;;30.27;20.80;;;12.80;99.90;;;;;;5011353;28;20546;-87
2022/10/15 07:16:32;;;;;;;25.77;16.70;;;12.90;99.90;;;;;;5009591;28;20086;-82
2022/10/15 07:18:58;;;;;;;31.08;19.45;;;13.00;99.90;;;;;;5013958;28;20112;-88
2022/10/15 07:21:23;;;;;;;25.83;18.58;;;13.10;99.90;;;;;;5027467;28;20084;-87
2022/10/15 07:23:49;;;;;;;28.35;17.58;;;13.10;99.90;;;;;;5011144;28;20033;-85
2022/10/15 07:26:14;;;;;;;26.67;17.63;;;13.20;99.90;;;;;;5009298;28;20092;-85
2022/10/15 07:28:40;;;;;;;27.48;19.13;;;13.20;99.90;;;;;;5010116;28;20487;-85
2022/10/15 07:31:06;;;;;;;22.08;13.77;;;13.20;99.90;;;;;;5011190;28;20045;-87
2022/10/15 07:33:34;;;;;;;29.40;20.27;;;13.30;99.90;;;;;;5005618;28;20052;-85
2022/10/15 07:36:08;;;;;;;30.55;17.38;;;13.40;99.90;;;;;;5026744;28;20030;-84
2022/10/15 07:38:34;;;;;;;30.90;19.63;;;13.50;99.90;;;;;;4991214;28;20056;-87
2022/10/15 07:41:00;;;;;;;35.47;18.90;;;13.60;99.90;;;;;;5009007;28;20485;-87
2022/10/15 07:43:26;;;;;;;34.80;21.73;;;13.60;99.90;;;;;;5008471;28;20036;-88
2022/10/15 07:45:52;;;;;;;34.42;19.75;;;13.60;99.90;;;;;;5009224;28;20677;-84
2022/10/15 07:48:18;;;;;;;30.30;19.15;;;13.70;99.90;;;;;;5008542;28;20075;-87
2022/10/15 07:50:43;;;;;;;32.70;20.55;;;13.80;99.90;;;;;;5009479;28;20405;-87
2022/10/15 07:53:09;;;;;;;34.50;21.15;;;13.80;99.90;;;;;;4996022;28;20556;-86
2022/10/15 07:55:34;;;;;;;30.92;21.00;;;13.80;99.90;;;;;;5009696;28;20025;-87
2022/10/15 07:58:00;;;;;;;31.27;18.90;;;13.80;99.90;;;;;;5008954;28;20558;-86
2022/10/15 08:00:26;;;;;;;32.33;21.92;;;13.90;99.90;;;;;;4992246;28;20382;-86
2022/10/15 08:02:51;;;;;;;28.20;19.67;;;13.90;99.90;;;;;;5008178;28;20029;-84
2022/10/15 08:05:17;;;;;;;29.05;18.75;;;14.00;99.90;;;;;;4992324;28;20033;-86
2022/10/15 08:07:42;;;;;;;27.90;19.23;;;14.10;99.90;;;;;;5024062;28;20049;-78
2022/10/15 08:10:09;;;;;;;27.10;18.55;;;14.10;99.90;;;;;;5026001;28;20028;-79
2022/10/15 08:12:35;;;;;;;29.52;21.27;;;14.10;99.90;;;;;;5016299;28;20040;-79
2022/10/15 08:15:01;;;;;;;34.70;22.70;;;14.20;99.90;;;;;;5008095;28;20284;-78
2022/10/15 08:17:26;;;;;;;30.60;20.80;;;14.20;99.90;;;;;;5008153;28;20036;-79
2022/10/15 08:19:52;;;;;;;29.70;19.45;;;14.30;99.90;;;;;;5009488;28;20432;-79
2022/10/15 08:22:17;;;;;;;24.55;17.00;;;14.40;99.90;;;;;;5024583;28;20031;-78
2022/10/15 08:24:43;;;;;;;24.55;17.65;;;14.50;99.90;;;;;;5023838;28;20380;-79
2022/10/15 08:27:08;;;;;;;24.60;17.23;;;14.50;99.90;;;;;;5008604;28;20366;-78
2022/10/15 08:29:34;;;;;;;24.40;15.50;;;14.50;99.90;;;;;;5008199;28;20473;-76
2022/10/15 08:32:00;;;;;;;22.02;15.57;;;14.70;99.90;;;;;;5008062;28;20430;-77
2022/10/15 08:34:25;;;;;;;21.80;14.02;;;14.80;99.90;;;;;;5007647;28;20616;-77
2022/10/15 08:36:51;;;;;;;19.75;12.85;;;14.80;99.90;;;;;;5007945;28;20563;-77
2022/10/15 08:39:17;;;;;;;16.70;12.98;;;14.90;99.90;;;;;;5024282;28;20061;-77
2022/10/15 08:41:46;;;;;;;17.00;13.25;;;15.10;99.90;;;;;;5024573;28;20116;-83
2022/10/15 08:44:25;;;;;;;18.30;13.45;;;15.20;99.90;;;;;;5006056;28;20042;-84
2022/10/15 08:46:58;;;;;;;16.77;11.40;;;15.40;99.90;;;;;;5007835;28;20021;-81
2022/10/15 08:49:47;;;;;;;14.57;10.88;;;15.60;99.90;;;;;;5023347;28;20112;-80
2022/10/15 08:52:35;;;;;;;13.93;10.10;;;15.60;99.90;;;;;;4993028;28;20026;-83
2022/10/15 08:55:01;;;;;;;12.50;9.27;;;15.70;99.90;;;;;;5014963;28;20729;-83
2022/10/15 08:57:40;;;;;;;12.25;9.57;;;15.90;99.90;;;;;;5006965;28;20036;-83
2022/10/15 09:00:16;;;;;;;10.35;8.48;;;16.10;99.90;;;;;;5007949;28;20098;-83
2022/10/15 09:02:47;;;;;;;8.63;6.65;;;16.00;99.90;;;;;;5023212;28;20120;-83
2022/10/15 09:05:53;;;;;;;10.43;7.43;;;16.30;99.90;;;;;;5024550;28;20057;-83
2022/10/15 09:08:25;;;;;;;7.93;6.22;;;16.50;99.90;;;;;;5018050;28;20057;-83
2022/10/15 09:11:16;;;;;;;8.82;5.13;;;16.70;99.90;;;;;;5022951;28;20083;-84
2022/10/15 09:13:43;;;;;;;4.97;4.47;;;16.80;99.90;;;;;;5015187;28;20087;-82
2022/10/15 09:16:18;;;;;;;5.10;3.38;;;17.10;99.90;;;;;;5009014;28;20053;-83
2022/10/15 09:18:46;;;;;;;4.55;3.90;;;17.00;99.90;;;;;;5008982;28;20489;-83
2022/10/15 09:21:12;;;;;;;3.78;2.35;;;17.10;99.90;;;;;;5019996;28;20500;-82
2022/10/15 09:23:42;;;;;;;2.58;1.98;;;17.20;99.90;;;;;;5007220;28;20029;-83
2022/10/15 09:26:28;;;;;;;3.08;2.72;;;17.30;99.90;;;;;;5008857;28;20033;-81
2022/10/15 09:29:14;;;;;;;3.13;2.25;;;17.40;99.90;;;;;;4993019;28;20033;-83
2022/10/15 09:31:44;;;;;;;2.42;1.70;;;17.40;99.90;;;;;;5007600;28;20037;-82
2022/10/15 09:34:19;;;;;;;2.63;1.73;;;17.40;99.90;;;;;;4991321;28;20036;-83
2022/10/15 09:36:51;;;;;;;2.47;2.22;;;17.40;99.90;;;;;;5006168;28;20091;-83
2022/10/15 09:39:35;;;;;;;1.65;1.55;;;17.70;99.90;;;;;;4990617;28;20116;-83
2022/10/15 09:42:19;;;;;;;2.25;1.50;;;17.80;99.90;;;;;;5026243;28;20451;-84
2022/10/15 09:44:44;;;;;;;1.85;1.60;;;17.90;99.90;;;;;;5009292;28;20029;-79
2022/10/15 09:47:22;;;;;;;1.23;1.00;;;18.10;99.90;;;;;;4982306;28;20044;-78
2022/10/15 09:49:47;;;;;;;1.48;1.00;;;18.10;99.90;;;;;;4990011;28;20113;-77
2022/10/15 09:52:30;;;;;;;3.35;1.20;;;18.30;99.90;;;;;;5009671;28;20433;-78
2022/10/15 09:55:30;;;;;;;0.82;0.70;;;18.30;99.90;;;;;;5023121;28;20037;-77
2022/10/15 09:57:58;;;;;;;1.75;1.10;;;18.30;99.90;;;;;;5011533;28;20064;-77
2022/10/15 10:00:23;;;;;;;1.08;0.90;;;18.40;99.90;;;;;;4995158;28;20022;-78
2022/10/15 10:03:06;;;;;;;1.83;0.82;;;18.50;99.90;;;;;;5010077;28;20175;-78
2022/10/15 10:05:32;;;;;;;0.98;0.88;;;18.60;99.90;;;;;;5009737;28;20115;-78
2022/10/15 10:08:19;;;;;;;0.60;0.50;;;18.60;99.90;;;;;;4994110;28;20041;-78
2022/10/15 10:10:44;;;;;;;;;;;18.50;99.90;;;;;;4994922;28;20112;-78
2022/10/15 10:13:31;;;;;;;3.22;0.85;;;18.60;99.90;;;;;;5011574;28;20288;-77
2022/10/15 10:16:05;;;;;;;1.48;0.50;;;18.70;99.90;;;;;;4982634;28;20500;-77
2022/10/15 10:18:31;;;;;;;0.93;0.50;;;18.70;99.90;;;;;;5010257;28;20124;-77
2022/10/15 10:21:01;;;;;;;0.43;0.43;;;18.70;99.90;;;;;;5011468;28;20034;-77
2022/10/15 10:23:30;;;;;;;0.50;0.45;;;18.80;99.90;;;;;;5009788;28;20034;-78
2022/10/15 10:25:57;;;;;;;0.50;0.50;;;18.80;99.90;;;;;;5010529;28;20092;-78
2022/10/15 10:28:34;;;;;;;1.13;0.60;;;18.90;99.90;;;;;;5009684;28;20040;-78
2022/10/15 10:31:04;;;;;;;0.30;0.30;;;19.00;99.90;;;;;;5010932;28;20505;-78
2022/10/15 10:33:42;;;;;;;0.70;0.50;;;19.00;99.90;;;;;;4992536;28;20099;-78
2022/10/15 10:36:17;;;;;;;2.05;0.60;;;19.10;99.90;;;;;;5013056;28;20033;-78
2022/10/15 10:38:43;;;;;;;0.90;0.50;;;19.10;99.90;;;;;;4996745;28;20439;-78
2022/10/15 10:41:09;;;;;;;2.05;0.40;;;19.10;99.90;;;;;;4996094;28;20091;-78
2022/10/15 10:43:38;;;;;;;0.52;0.47;;;19.10;99.90;;;;;;4993545;28;20831;-78
2022/10/15 10:46:13;;;;;;;1.98;0.50;;;19.10;99.90;;;;;;5025185;28;20478;-80
2022/10/15 10:48:46;;;;;;;0.85;0.55;;;19.00;99.90;;;;;;5027036;28;20501;-78
2022/10/15 10:51:20;;;;;;;0.60;0.40;;;18.90;99.90;;;;;;5009789;28;20507;-78
2022/10/15 10:54:13;;;;;;;0.50;0.50;;;18.90;99.90;;;;;;4992635;28;20496;-78
2022/10/15 10:56:42;;;;;;;0.63;0.30;;;18.80;99.90;;;;;;5024839;28;20436;-77
2022/10/15 10:59:47;;;;;;;0.57;0.50;;;18.80;99.90;;;;;;5009278;28;20570;-79
2022/10/15 11:02:12;;;;;;;0.80;0.60;;;18.80;99.90;;;;;;4970893;28;20033;-80
2022/10/15 11:04:38;;;;;;;3.05;0.57;;;18.70;99.90;;;;;;5028440;28;20032;-79
2022/10/15 11:07:26;;;;;;;0.47;0.47;;;18.60;99.90;;;;;;4992758;28;20205;-79
2022/10/15 11:09:53;;;;;;;0.50;0.50;;;18.60;99.90;;;;;;5012204;28;20030;-79
2022/10/15 11:12:54;;;;;;;0.63;0.50;;;18.40;99.90;;;;;;5008518;28;20085;-78
2022/10/15 11:15:35;;;;;;;0.60;0.57;;;18.30;99.90;;;;;;5008835;28;20115;-79
2022/10/15 11:18:19;;;;;;;0.50;0.40;;;18.20;99.90;;;;;;5023200;28;20038;-78
2022/10/15 11:21:12;;;;;;;0.68;0.32;;;18.20;99.90;;;;;;5025960;28;20034;-79
2022/10/15 11:24:00;;;;;;;0.43;0.43;;;18.10;99.90;;;;;;5025872;28;20444;-79
2022/10/15 11:26:53;;;;;;;1.05;0.40;;;18.10;99.90;;;;;;5007780;28;20033;-80
2022/10/15 11:29:47;;;;;;;2.10;0.40;;;18.20;99.90;;;;;;5024558;28;20509;-80
2022/10/15 11:32:33;;;;;;;1.80;0.65;;;18.10;99.90;;;;;;5026530;28;20030;-79
2022/10/15 11:35:30;;;;;;;0.93;0.63;;;18.20;99.90;;;;;;5009606;28;20508;-79
2022/10/15 11:38:19;;;;;;;0.52;0.52;;;18.10;99.90;;;;;;5027777;28;20501;-79
2022/10/15 11:41:02;;;;;;;1.17;0.70;;;18.10;99.90;;;;;;5023805;28;20025;-79
2022/10/15 11:43:28;;;;;;;1.15;0.50;;;18.10;99.90;;;;;;5027003;28;20025;-79
2022/10/15 11:46:12;;;;;;;0.57;0.50;;;18.10;99.90;;;;;;5026267;28;20055;-79
2022/10/15 11:48:58;;;;;;;2.10;0.60;;;18.10;99.90;;;;;;4641707;28;9999669;-80
2022/10/15 11:51:38;;;;;;;0.50;0.50;;;18.10;99.90;;;;;;5008396;28;20520;-80
2022/10/15 11:54:19;;;;;;;2.65;0.80;;;18.10;99.90;;;;;;5005563;28;20077;-79
2022/10/15 11:56:48;;;;;;;1.75;0.70;;;18.00;99.90;;;;;;5010669;28;20556;-79
2022/10/15 11:59:34;;;;;;;0.52;0.52;;;18.10;99.90;;;;;;4995881;28;20121;-79
2022/10/15 12:02:11;;;;;;;1.45;0.52;;;18.10;99.90;;;;;;5005364;28;20130;-78
2022/10/15 12:04:54;;;;;;;0.45;0.45;;;18.10;99.90;;;;;;4997756;28;20121;-78
2022/10/15 12:07:25;;;;;;;0.93;0.70;;;18.10;99.90;;;;;;4987760;28;20520;-78
2022/10/15 12:09:55;;;;;;;3.58;0.50;;;18.10;99.90;;;;;;5008932;28;20099;-78
2022/10/15 12:12:23;;;;;;;2.40;0.60;;;18.10;99.90;;;;;;4989392;28;20037;-78
2022/10/15 12:14:59;;;;;;;2.55;0.40;;;18.20;99.90;;;;;;5021057;28;20038;-79
2022/10/15 12:17:41;;;;;;;0.70;0.60;;;18.30;99.90;;;;;;5006617;28;20037;-77
2022/10/15 12:20:15;;;;;;;2.15;0.50;;;18.20;99.90;;;;;;5007591;28;20043;-77
2022/10/15 12:22:46;;;;;;;2.15;0.50;;;18.30;99.90;;;;;;5009609;28;20029;-78
2022/10/15 12:25:33;;;;;;;0.47;0.40;;;18.30;99.90;;;;;;5025453;28;20523;-78
2022/10/15 12:28:19;;;;;;;0.47;0.47;;;18.40;99.90;;;;;;5014708;28;20038;-77
2022/10/15 12:30:54;;;;;;;2.40;0.63;;;18.40;99.90;;;;;;5025286;28;20108;-77
2022/10/15 12:33:37;;;;;;;1.48;0.50;;;18.70;99.90;;;;;;5024997;28;20037;-80
2022/10/15 12:36:17;;;;;;;2.78;0.60;;;18.80;99.90;;;;;;5009661;28;20512;-79
2022/10/15 12:38:50;;;;;;;0.40;0.40;;;19.00;99.90;;;;;;5024566;28;20771;-80
2022/10/15 12:41:16;;;;;;;2.75;0.50;;;19.10;99.90;;;;;;5008697;28;20052;-80
2022/10/15 12:43:47;;;;;;;2.47;0.70;;;19.10;99.90;;;;;;5007871;28;20493;-80
2022/10/15 12:46:12;;;;;;;1.55;0.50;;;19.10;99.90;;;;;;5006202;28;20120;-81
2022/10/15 12:48:42;;;;;;;1.17;0.40;;;19.20;99.90;;;;;;5007440;28;21227;-81
2022/10/15 12:51:20;;;;;;;0.40;0.40;;;19.20;99.90;;;;;;5024035;28;20460;-81
2022/10/15 12:53:46;;;;;;;0.40;0.40;;;19.20;99.90;;;;;;5013292;28;20129;-81